Airfield :
LOGIN :

Register | Disclaimer

   EN    FR    IT 

 










Legend :    VFR   Marginal VFR   IFR   Intensive IFR   Very Intensive IFR
Visi :
Ceiling :
>= 8 km
>= 3000ft
5 to 8 km
1000 to 3000 ft
1500m to 5 km
500 to 1000 ft
800 to 1500m
200 to 500 ft
< 800m
< 200 ft
Symbols :   Thunderstorms  Fog  Heavy snow  Heavy precipitations  Wind > 20 kt
SIGMETs :     Misc.  Thunderstorms  Icing  Turbulence  Mountain Waves  Volcanic Ashes







- Airport Elevation : 1267 ft
- IATA code : CUF


LIMZ - Cuneo Levaldigi

METAR N/A
TAF TAF LIMZ
Valid from the 21 at 18:00 until the 22 at 18:00 UTC


211700Z 2118/2218 VRB05KT 9999 SCT080
No reported NOTAMs for that airfield.
1 SIGMET reported for the Milano FIR (LIMM) :
 
Severe turbulence
LIMM SIGMET 2 VALID 212350/220350 LIIP
LIMM MILANO FIR SEV TURB FCST WI N4640 E01001 - N4626 E00940 - N4513 E01025 - N4523 E01317 - N4540 E01353 - N4538 E01350 - N4630 E01342 - N4705 E01211 - N4656 E01109 - N4647 E01029 - N4640 E01001 FL330/400 STNR NC=



MET'MAP, your aeronautical weather chart ! - Copyright ORBIFLY December 2007 - Disclaimer

ORBIFLY MET'MAP TEAM :

Programming & Development : Alexandra Zaïnal
Concept & Development : Baudouin d'Aumeries
Co-Development & Prog : Marc-Olivier Méhu
Technical & hardware support : Manuel Goepfert

Contact : metmap@orbifly.com




SOURCES & CREDITS :

   NOAA